createdAt,value
2022-12-18T00:01:39.950Z,3.08
2022-12-18T00:04:14.376Z,3.22
2022-12-18T00:06:41.631Z,2.85
2022-12-18T00:09:09.814Z,2.67
2022-12-18T00:11:36.615Z,2.28
2022-12-18T00:14:03.477Z,2.60
2022-12-18T00:16:31.997Z,2.75
2022-12-18T00:19:00.098Z,2.42
2022-12-18T00:21:28.459Z,2.50
2022-12-18T00:23:55.748Z,2.22
2022-12-18T00:26:27.860Z,2.50
2022-12-18T00:29:05.688Z,2.70
2022-12-18T00:31:33.244Z,2.45
2022-12-18T00:34:02.057Z,2.80
2022-12-18T00:36:35.101Z,2.03
2022-12-18T00:39:04.901Z,2.40
2022-12-18T00:41:51.227Z,2.38
2022-12-18T00:44:19.189Z,2.25
2022-12-18T00:46:47.354Z,2.60
2022-12-18T00:49:15.123Z,2.42
2022-12-18T00:51:42.450Z,2.35
2022-12-18T00:54:10.121Z,2.30
2022-12-18T00:56:45.694Z,2.55
2022-12-18T00:59:16.358Z,2.55
2022-12-18T01:01:43.814Z,2.35
2022-12-18T01:04:10.778Z,2.60
2022-12-18T01:06:37.895Z,2.08
2022-12-18T01:09:04.878Z,2.33
2022-12-18T01:11:32.089Z,2.53
2022-12-18T01:14:01.757Z,2.92
2022-12-18T01:16:28.854Z,2.65
2022-12-18T01:18:57.326Z,2.33
2022-12-18T01:21:25.210Z,2.85
2022-12-18T01:23:54.489Z,2.45
2022-12-18T01:26:21.569Z,2.55
2022-12-18T01:28:48.712Z,2.70
2022-12-18T01:31:27.582Z,2.95
2022-12-18T01:33:56.153Z,3.35
2022-12-18T01:36:26.274Z,2.95
2022-12-18T01:38:54.272Z,2.35
2022-12-18T01:41:26.750Z,2.60
2022-12-18T01:43:58.499Z,2.80
2022-12-18T01:46:27.518Z,2.60
2022-12-18T01:49:02.335Z,2.20
2022-12-18T01:51:30.958Z,2.50
2022-12-18T01:54:00.530Z,2.63
2022-12-18T01:56:27.718Z,2.80
2022-12-18T01:59:03.879Z,2.72
2022-12-18T02:01:32.112Z,2.90
2022-12-18T02:04:24.968Z,2.88
2022-12-18T02:07:04.106Z,2.70
2022-12-18T02:10:03.518Z,2.90
2022-12-18T02:12:58.419Z,2.30
2022-12-18T02:18:18.222Z,2.50
2022-12-18T02:21:13.639Z,2.42
2022-12-18T02:23:59.702Z,2.55
2022-12-18T02:26:39.145Z,2.40
2022-12-18T02:29:13.001Z,2.20
2022-12-18T02:32:01.081Z,2.60
2022-12-18T02:34:32.523Z,2.08
2022-12-18T02:37:03.247Z,2.20
2022-12-18T02:39:34.019Z,2.10
2022-12-18T02:42:08.930Z,2.53
2022-12-18T02:44:44.517Z,2.90
2022-12-18T02:47:14.601Z,2.63
2022-12-18T02:49:59.847Z,2.47
2022-12-18T02:52:50.947Z,2.20
2022-12-18T02:55:45.844Z,2.58
2022-12-18T02:58:49.032Z,2.50
2022-12-18T03:01:38.333Z,2.55
2022-12-18T03:04:18.491Z,2.40
2022-12-18T03:06:50.051Z,3.17
2022-12-18T03:09:32.324Z,2.83
2022-12-18T03:27:02.071Z,2.90
2022-12-18T03:29:36.579Z,2.78
2022-12-18T03:32:10.858Z,2.65
2022-12-18T03:34:41.610Z,3.40
2022-12-18T03:37:11.042Z,2.50
2022-12-18T03:39:38.840Z,2.67
2022-12-18T03:42:15.745Z,2.70
2022-12-18T03:45:17.106Z,3.08
2022-12-18T03:48:05.120Z,2.58
2022-12-18T03:50:58.447Z,2.50
2022-12-18T03:53:55.088Z,2.50
2022-12-18T03:56:31.050Z,2.17
2022-12-18T03:59:02.220Z,2.90
2022-12-18T04:01:35.203Z,2.22
2022-12-18T04:04:03.838Z,2.35
2022-12-18T04:06:35.759Z,2.17
2022-12-18T04:09:03.077Z,2.65
2022-12-18T04:11:32.379Z,2.72
2022-12-18T04:14:07.081Z,2.95
2022-12-18T04:16:34.906Z,2.70
2022-12-18T04:19:04.720Z,2.72
2022-12-18T04:21:38.022Z,2.75
2022-12-18T04:24:06.019Z,2.65
2022-12-18T04:26:35.453Z,3.22
2022-12-18T04:29:15.954Z,3.25
2022-12-18T04:31:43.249Z,2.92
2022-12-18T04:34:10.281Z,3.50
2022-12-18T04:36:43.170Z,3.20
2022-12-18T04:39:10.091Z,3.25
2022-12-18T04:41:37.113Z,3.75
2022-12-18T04:44:05.493Z,3.53
2022-12-18T04:46:32.370Z,4.65
2022-12-18T04:48:59.198Z,5.15
2022-12-18T04:51:26.820Z,5.25
2022-12-18T04:53:54.804Z,5.03
2022-12-18T04:56:22.276Z,4.85
2022-12-18T04:58:49.248Z,6.10
2022-12-18T05:01:18.244Z,6.15
2022-12-18T05:03:45.495Z,6.13
2022-12-18T05:06:12.552Z,5.72
2022-12-18T05:08:39.587Z,7.25
2022-12-18T05:11:10.014Z,7.10
2022-12-18T05:13:39.245Z,5.72
2022-12-18T05:16:06.953Z,5.15
2022-12-18T05:18:33.809Z,5.57
2022-12-18T05:21:00.756Z,5.38
2022-12-18T05:23:28.230Z,5.32
2022-12-18T05:26:03.082Z,4.97
2022-12-18T05:28:32.552Z,6.90
2022-12-18T05:31:01.567Z,6.88
2022-12-18T05:33:32.035Z,6.60
2022-12-18T05:36:00.891Z,7.65
2022-12-18T05:38:28.487Z,7.38
2022-12-18T05:40:55.666Z,8.02
2022-12-18T05:43:23.545Z,8.00
2022-12-18T05:45:51.244Z,10.43
2022-12-18T05:48:18.105Z,8.70
2022-12-18T05:50:46.606Z,9.10
2022-12-18T05:53:14.402Z,8.50
2022-12-18T05:55:43.354Z,7.85
2022-12-18T05:58:11.686Z,9.95
2022-12-18T06:00:43.271Z,9.32
2022-12-18T06:03:11.829Z,9.35
2022-12-18T06:05:42.440Z,8.93
2022-12-18T06:08:10.039Z,9.32
2022-12-18T06:10:37.457Z,10.10
2022-12-18T06:13:04.459Z,10.52
2022-12-18T06:15:31.333Z,11.15
2022-12-18T06:17:58.151Z,9.15
2022-12-18T06:20:29.099Z,10.38
2022-12-18T06:22:58.917Z,11.07
2022-12-18T06:25:25.727Z,11.10
2022-12-18T06:27:52.557Z,10.68
2022-12-18T06:30:19.638Z,10.93
2022-12-18T06:32:49.466Z,11.68
2022-12-18T06:35:18.633Z,10.70
2022-12-18T06:37:47.945Z,10.68
2022-12-18T06:40:14.798Z,11.15
2022-12-18T06:42:41.641Z,12.32
2022-12-18T06:45:09.090Z,11.35
2022-12-18T06:47:35.918Z,12.07
2022-12-18T06:50:02.982Z,18.23
2022-12-18T06:52:29.829Z,13.00
2022-12-18T06:54:56.692Z,14.18
2022-12-18T06:57:23.428Z,13.45
2022-12-18T06:59:50.513Z,12.27
2022-12-18T07:02:17.610Z,13.95
2022-12-18T07:04:44.557Z,15.02
2022-12-18T07:07:11.347Z,15.00
2022-12-18T07:09:38.140Z,12.55
2022-12-18T07:12:06.200Z,14.82
2022-12-18T07:14:33.090Z,13.60
2022-12-18T07:17:00.037Z,15.43
2022-12-18T07:19:26.999Z,13.52
2022-12-18T07:21:53.948Z,13.63
2022-12-18T07:24:20.773Z,14.20
2022-12-18T07:26:47.993Z,14.90
2022-12-18T07:29:14.999Z,13.63
2022-12-18T07:31:42.007Z,14.98
2022-12-18T07:34:13.873Z,15.63
2022-12-18T07:36:41.275Z,16.23
2022-12-18T07:39:08.543Z,16.10
2022-12-18T07:41:35.403Z,17.13
2022-12-18T07:44:12.409Z,16.25
2022-12-18T07:46:39.710Z,15.93
2022-12-18T07:49:06.695Z,15.70
2022-12-18T07:51:33.698Z,16.40
2022-12-18T07:54:00.518Z,15.93
2022-12-18T07:56:29.096Z,15.57
2022-12-18T07:58:57.133Z,16.42
2022-12-18T08:01:24.172Z,15.13
2022-12-18T08:03:52.125Z,16.52
2022-12-18T08:06:19.693Z,15.48
2022-12-18T08:08:52.625Z,14.98
2022-12-18T08:11:19.395Z,15.38
2022-12-18T08:13:46.607Z,16.83
2022-12-18T08:16:13.581Z,17.40
2022-12-18T08:18:40.602Z,15.95
2022-12-18T08:21:16.650Z,15.75
2022-12-18T08:23:44.208Z,17.25
2022-12-18T08:26:14.870Z,15.38
2022-12-18T08:28:42.409Z,14.68
2022-12-18T08:31:10.309Z,15.73
2022-12-18T08:33:38.927Z,16.58
2022-12-18T08:36:06.936Z,16.52
2022-12-18T08:38:34.281Z,15.73
2022-12-18T08:41:03.536Z,16.95
2022-12-18T08:43:49.426Z,15.68
2022-12-18T08:46:16.268Z,16.73
2022-12-18T08:48:43.174Z,16.58
2022-12-18T08:51:10.740Z,17.27
2022-12-18T08:53:38.617Z,16.85
2022-12-18T08:56:06.701Z,17.02
2022-12-18T08:58:33.514Z,17.17
2022-12-18T09:01:04.925Z,16.92
2022-12-18T09:03:32.619Z,17.10
2022-12-18T09:06:00.576Z,16.98
2022-12-18T09:08:27.827Z,17.08
2022-12-18T09:10:54.799Z,17.75
2022-12-18T09:13:22.094Z,16.73
2022-12-18T09:15:54.428Z,16.60
2022-12-18T09:18:24.001Z,16.25
2022-12-18T09:20:54.104Z,16.90
2022-12-18T09:23:22.023Z,16.60
2022-12-18T09:25:49.416Z,17.00
2022-12-18T09:28:19.265Z,17.02
2022-12-18T09:30:49.724Z,17.67
2022-12-18T09:33:17.662Z,20.23
2022-12-18T09:35:46.157Z,16.70
2022-12-18T09:38:15.986Z,16.15
2022-12-18T09:40:50.969Z,15.60
2022-12-18T09:43:45.393Z,16.80
2022-12-18T09:46:20.797Z,18.38
2022-12-18T09:48:51.158Z,17.13
2022-12-18T09:51:23.872Z,17.70
2022-12-18T09:54:00.147Z,15.82
2022-12-18T09:56:30.482Z,16.25
2022-12-18T09:59:00.651Z,17.05
2022-12-18T10:01:36.333Z,15.43
2022-12-18T10:04:10.662Z,17.52
2022-12-18T10:06:52.697Z,17.13
2022-12-18T10:09:37.459Z,17.70
2022-12-18T10:15:05.772Z,18.27
2022-12-18T10:17:41.603Z,19.80
2022-12-18T10:20:28.383Z,18.60
2022-12-18T10:23:04.287Z,20.92
2022-12-18T10:26:03.092Z,20.23
2022-12-18T10:28:32.327Z,17.30
2022-12-18T10:30:59.850Z,20.13
2022-12-18T10:33:30.990Z,18.50
2022-12-18T10:35:57.865Z,19.27
2022-12-18T10:38:28.907Z,19.08
2022-12-18T10:41:01.930Z,16.83
2022-12-18T10:43:37.280Z,18.02
2022-12-18T10:46:09.930Z,19.13
2022-12-18T10:48:40.409Z,17.40
2022-12-18T10:51:12.928Z,19.88
2022-12-18T10:53:42.975Z,19.00
2022-12-18T10:56:10.090Z,18.02
2022-12-18T10:58:39.682Z,18.25
2022-12-18T11:01:16.780Z,16.48
2022-12-18T11:04:02.489Z,15.73
2022-12-18T11:06:30.749Z,16.77
2022-12-18T11:09:12.336Z,18.38
2022-12-18T11:11:41.392Z,17.03
2022-12-18T11:14:19.387Z,17.13
2022-12-18T11:17:24.430Z,16.38
2022-12-18T11:19:39.859Z,17.80
2022-12-18T11:22:27.614Z,18.50
2022-12-18T11:28:36.962Z,17.25
2022-12-18T11:31:18.190Z,34.45
2022-12-18T11:34:26.959Z,20.17
2022-12-18T11:36:49.195Z,19.23
2022-12-18T11:39:24.279Z,19.50
2022-12-18T11:42:09.921Z,23.88
2022-12-18T11:44:48.045Z,23.00
2022-12-18T11:47:32.055Z,20.65
2022-12-18T11:50:03.124Z,19.38
2022-12-18T11:52:41.848Z,18.10
2022-12-18T11:55:33.437Z,20.23
2022-12-18T11:58:15.400Z,20.20
2022-12-18T12:00:53.426Z,21.00
2022-12-18T12:03:41.324Z,17.23
2022-12-18T12:06:19.897Z,17.30
2022-12-18T12:09:16.131Z,16.13
2022-12-18T12:12:12.503Z,16.02
2022-12-18T12:15:02.399Z,16.05
2022-12-18T12:18:11.306Z,16.33
2022-12-18T12:20:52.666Z,12.70
2022-12-18T12:23:27.790Z,12.93
2022-12-18T12:26:12.593Z,13.13
2022-12-18T12:29:01.202Z,13.23
2022-12-18T12:31:59.726Z,13.05
2022-12-18T12:35:00.960Z,13.82
2022-12-18T12:38:07.205Z,12.77
2022-12-18T12:41:02.429Z,11.15
2022-12-18T12:43:46.139Z,10.32
2022-12-18T12:46:20.639Z,11.07
2022-12-18T12:48:59.265Z,8.52
2022-12-18T12:51:29.905Z,6.50
2022-12-18T12:53:59.269Z,8.50
2022-12-18T12:56:36.151Z,7.70
2022-12-18T12:59:16.764Z,9.15
2022-12-18T13:01:55.731Z,6.47
2022-12-18T13:04:38.231Z,6.57
2022-12-18T13:07:08.116Z,6.57
2022-12-18T13:09:36.709Z,6.75
2022-12-18T13:12:33.272Z,7.53
2022-12-18T13:15:24.021Z,6.40
2022-12-18T13:18:13.250Z,6.43
2022-12-18T13:23:37.647Z,6.90
2022-12-18T13:26:07.415Z,5.88
2022-12-18T13:28:34.566Z,6.22
2022-12-18T13:31:03.690Z,6.45
2022-12-18T13:33:30.427Z,6.40
2022-12-18T13:36:03.341Z,5.90
2022-12-18T13:38:33.173Z,6.07
2022-12-18T13:41:02.031Z,6.45
2022-12-18T13:43:37.912Z,7.15
2022-12-18T13:46:23.462Z,7.28
2022-12-18T13:49:13.621Z,8.20
2022-12-18T13:51:54.724Z,7.60
2022-12-18T13:54:35.784Z,6.82
2022-12-18T13:57:04.559Z,7.10
2022-12-18T13:59:36.378Z,8.02
2022-12-18T14:02:23.687Z,6.32
2022-12-18T14:04:52.788Z,6.70
2022-12-18T14:07:31.438Z,7.35
2022-12-18T14:10:33.848Z,9.55
2022-12-18T14:12:59.140Z,7.53
2022-12-18T14:15:28.110Z,7.85
2022-12-18T14:18:26.510Z,8.00
2022-12-18T14:20:58.764Z,7.75
2022-12-18T14:23:38.454Z,9.15
2022-12-18T14:26:31.076Z,9.80
2022-12-18T14:29:02.183Z,8.13
2022-12-18T14:31:31.707Z,7.35
2022-12-18T14:33:58.714Z,7.50
2022-12-18T14:36:30.070Z,8.43
2022-12-18T14:39:00.220Z,7.50
2022-12-18T14:41:27.714Z,7.78
2022-12-18T14:43:55.721Z,7.88
2022-12-18T14:46:28.622Z,8.57
2022-12-18T14:48:56.555Z,8.13
2022-12-18T14:51:28.223Z,7.25
2022-12-18T14:53:58.696Z,9.27
2022-12-18T14:56:50.836Z,9.20
2022-12-18T14:59:25.038Z,8.18
2022-12-18T15:02:01.362Z,8.02
2022-12-18T15:04:34.949Z,8.38
2022-12-18T15:07:18.079Z,8.95
2022-12-18T15:10:04.788Z,8.32
2022-12-18T15:12:37.598Z,7.78
2022-12-18T15:28:52.415Z,8.07
2022-12-18T15:31:24.440Z,9.43
2022-12-18T15:33:53.278Z,10.10
2022-12-18T15:36:26.413Z,9.48
2022-12-18T15:38:56.210Z,10.13
2022-12-18T15:41:36.334Z,10.25
2022-12-18T15:44:04.377Z,11.07
2022-12-18T15:46:32.079Z,10.43
2022-12-18T15:49:02.683Z,8.98
2022-12-18T15:51:39.638Z,9.70
2022-12-18T15:54:13.027Z,10.18
2022-12-18T15:56:58.389Z,9.82
2022-12-18T15:59:25.526Z,9.98
2022-12-18T16:01:54.167Z,8.93
2022-12-18T16:04:22.852Z,8.07
2022-12-18T16:09:38.200Z,9.32
2022-12-18T16:12:07.244Z,10.35
2022-12-18T16:14:35.136Z,10.20
2022-12-18T16:17:10.019Z,11.02
2022-12-18T16:19:36.907Z,10.73
2022-12-18T16:22:03.728Z,9.02
2022-12-18T16:24:37.123Z,11.07
2022-12-18T16:27:04.607Z,10.18
2022-12-18T16:29:31.444Z,9.30
2022-12-18T16:32:00.153Z,9.75
2022-12-18T16:34:32.876Z,10.55
2022-12-18T16:37:08.021Z,10.05
2022-12-18T16:39:36.051Z,10.27
2022-12-18T16:42:20.804Z,9.35
2022-12-18T16:44:49.336Z,9.55
2022-12-18T16:47:17.221Z,8.60
2022-12-18T16:49:47.497Z,8.73
2022-12-18T16:52:15.357Z,10.13
2022-12-18T16:54:42.221Z,9.10
2022-12-18T16:57:13.041Z,9.18
2022-12-18T16:59:40.411Z,8.63
2022-12-18T17:02:13.285Z,7.80
2022-12-18T17:04:40.335Z,7.85
2022-12-18T17:07:07.168Z,7.28
2022-12-18T17:09:34.285Z,7.57
2022-12-18T17:12:04.203Z,8.10
2022-12-18T17:14:33.431Z,6.78
2022-12-18T17:19:50.233Z,8.38
2022-12-18T17:22:17.248Z,7.40
2022-12-18T17:24:44.381Z,7.97
2022-12-18T17:27:11.285Z,6.63
2022-12-18T17:29:41.281Z,6.78
2022-12-18T17:32:13.594Z,7.18
2022-12-18T17:34:40.937Z,7.75
2022-12-18T17:37:08.304Z,7.30
2022-12-18T17:39:37.789Z,7.28
2022-12-18T17:42:05.223Z,8.18
2022-12-18T17:44:34.891Z,7.28
2022-12-18T17:47:02.518Z,7.80
2022-12-18T17:49:29.952Z,8.35
2022-12-18T17:51:56.827Z,9.50
2022-12-18T17:54:24.234Z,9.30
2022-12-18T17:56:51.273Z,10.18
2022-12-18T17:59:18.771Z,9.30
2022-12-18T18:01:45.973Z,8.85
2022-12-18T18:04:13.457Z,8.80
2022-12-18T18:06:41.032Z,8.43
2022-12-18T18:09:15.139Z,9.05
2022-12-18T18:12:03.165Z,8.32
2022-12-18T18:14:30.323Z,10.63
2022-12-18T18:16:58.209Z,9.52
2022-12-18T18:19:31.996Z,9.52
2022-12-18T18:21:58.851Z,7.70
2022-12-18T18:24:26.063Z,10.27
2022-12-18T18:26:53.376Z,9.70
2022-12-18T18:29:23.240Z,9.25
2022-12-18T18:31:50.383Z,9.90
2022-12-18T18:34:20.654Z,8.65
2022-12-18T18:36:47.764Z,6.50
2022-12-18T18:39:15.013Z,7.30
2022-12-18T18:41:43.264Z,7.57
2022-12-18T18:44:15.904Z,9.35
2022-12-18T18:46:42.812Z,8.23
2022-12-18T18:49:10.225Z,8.35
2022-12-18T18:51:37.088Z,9.48
2022-12-18T18:54:04.137Z,9.20
2022-12-18T18:59:19.334Z,10.60
2022-12-18T19:01:50.461Z,10.93
2022-12-18T19:04:17.519Z,9.88
2022-12-18T19:06:46.704Z,10.98
2022-12-18T19:09:14.189Z,11.63
2022-12-18T19:11:59.587Z,11.85
2022-12-18T19:14:26.543Z,11.50
2022-12-18T19:16:54.272Z,12.88
2022-12-18T19:19:22.010Z,10.77
2022-12-18T19:21:50.223Z,11.82
2022-12-18T19:24:17.076Z,9.73
2022-12-18T19:26:43.992Z,10.77
2022-12-18T19:29:12.130Z,10.43
2022-12-18T19:31:40.413Z,10.95
2022-12-18T19:34:07.940Z,11.23
2022-12-18T19:36:38.118Z,9.63
2022-12-18T19:39:13.714Z,11.15
2022-12-18T19:41:41.356Z,11.20
2022-12-18T19:44:10.083Z,10.27
2022-12-18T19:46:40.586Z,11.60
2022-12-18T19:49:11.148Z,11.38
2022-12-18T19:51:38.626Z,9.35
2022-12-18T19:54:05.864Z,10.27
2022-12-18T19:56:35.037Z,10.00
2022-12-18T19:59:03.846Z,10.50
2022-12-18T20:01:31.093Z,9.65
2022-12-18T20:03:59.036Z,10.35
2022-12-18T20:06:33.019Z,9.40
2022-12-18T20:09:03.853Z,10.45
2022-12-18T20:11:31.022Z,10.98
2022-12-18T20:13:58.653Z,9.90
2022-12-18T20:16:25.624Z,8.82
2022-12-18T20:18:52.592Z,10.07
2022-12-18T20:21:19.741Z,9.82
2022-12-18T20:23:46.618Z,11.77
2022-12-18T20:26:14.143Z,10.80
2022-12-18T20:28:41.078Z,9.65
2022-12-18T20:31:10.582Z,9.90
2022-12-18T20:33:42.002Z,9.55
2022-12-18T20:36:14.336Z,9.98
2022-12-18T20:38:42.695Z,10.73
2022-12-18T20:41:17.799Z,10.18
2022-12-18T20:43:45.425Z,9.45
2022-12-18T20:46:14.968Z,10.43
2022-12-18T20:48:43.462Z,10.75
2022-12-18T20:51:17.572Z,10.10
2022-12-18T20:53:45.464Z,10.18
2022-12-18T20:56:20.828Z,9.77
2022-12-18T20:58:49.981Z,9.45
2022-12-18T21:01:19.973Z,10.50
2022-12-18T21:03:47.813Z,10.40
2022-12-18T21:06:16.871Z,10.20
2022-12-18T21:08:44.345Z,10.05
2022-12-18T21:11:46.676Z,10.50
2022-12-18T21:14:19.447Z,9.63
2022-12-18T21:16:46.885Z,9.55
2022-12-18T21:19:17.861Z,9.38
2022-12-18T21:21:45.848Z,11.07
2022-12-18T21:24:13.363Z,10.75
2022-12-18T21:26:45.876Z,10.02
2022-12-18T21:29:23.417Z,10.45
2022-12-18T21:31:51.382Z,11.73
2022-12-18T21:34:23.202Z,9.93
2022-12-18T21:36:50.170Z,10.82
2022-12-18T21:39:17.778Z,10.38
2022-12-18T21:42:05.661Z,11.18
2022-12-18T21:44:33.967Z,10.70
2022-12-18T21:49:51.988Z,10.80
2022-12-18T21:52:19.519Z,10.35
2022-12-18T21:54:48.403Z,10.20
2022-12-18T21:57:15.276Z,10.82
2022-12-18T21:59:43.741Z,11.90
2022-12-18T22:02:18.947Z,11.25
2022-12-18T22:04:47.124Z,10.77
2022-12-18T22:07:16.453Z,11.32
2022-12-18T22:09:43.816Z,11.73
2022-12-18T22:12:13.399Z,11.40
2022-12-18T22:14:40.227Z,10.75
2022-12-18T22:17:07.198Z,10.15
2022-12-18T22:19:42.696Z,11.02
2022-12-18T22:22:09.920Z,11.63
2022-12-18T22:24:36.807Z,12.23
2022-12-18T22:27:04.400Z,12.02
2022-12-18T22:29:50.578Z,11.63
2022-12-18T22:32:22.235Z,10.77
2022-12-18T22:35:04.934Z,11.15
2022-12-18T22:37:34.198Z,10.70
2022-12-18T22:40:03.188Z,11.20
2022-12-18T22:42:31.161Z,10.57
2022-12-18T22:44:57.999Z,11.65
2022-12-18T22:47:29.440Z,11.23
2022-12-18T22:49:57.529Z,11.27
2022-12-18T22:52:24.988Z,13.82
2022-12-18T22:54:53.275Z,12.27
2022-12-18T22:57:24.326Z,13.77
2022-12-18T22:59:51.546Z,13.88
2022-12-18T23:02:19.324Z,11.60
2022-12-18T23:04:47.744Z,11.80
2022-12-18T23:07:15.597Z,12.68
2022-12-18T23:09:42.952Z,13.40
2022-12-18T23:12:17.090Z,12.48
2022-12-18T23:14:44.082Z,12.25
2022-12-18T23:17:11.176Z,12.82
2022-12-18T23:19:38.049Z,12.93
2022-12-18T23:22:10.011Z,13.43
2022-12-18T23:24:38.392Z,14.23
2022-12-18T23:27:06.516Z,13.02
2022-12-18T23:29:38.383Z,13.35
2022-12-18T23:32:05.244Z,12.73
2022-12-18T23:34:32.122Z,13.35
2022-12-18T23:36:58.988Z,13.55
2022-12-18T23:39:29.850Z,12.85
2022-12-18T23:42:00.594Z,13.68
2022-12-18T23:44:27.830Z,13.95
2022-12-18T23:46:55.464Z,15.25
2022-12-18T23:49:22.695Z,14.75
2022-12-18T23:51:49.622Z,15.52
2022-12-18T23:54:16.533Z,13.98
2022-12-18T23:56:43.355Z,13.52
2022-12-18T23:59:10.398Z,16.65
